^^
Station Historical Data
 
Daily Summary for September 26, 2018 Units:  English    Metric   Both
« Previous Day
Next Day »
Daily Weekly Monthly Yearly Custom
  Current: High: Low: Average:
Temperature: 43.9 °F 43.9 °F 36.1 °F 38.4 °F
Dew Point: 38.8 °F 38.8 °F 34 °F 36 °F
Humidity: 82% 93% 82% 91%
Wind Speed: 5mph 11mph 1mph 3.6mph
Wind Gust: 11mph 13mph - -
WindSW - - WSW
Pressure: 30.14 in 30.23 in 30.14 in -
Precipitation: 0 in      
Historical Graphs
 
 
Tabular Data for September 26, 2018
Time Temperature Dew Point Pressure Wind Wind Speed Wind Gust Humidity Rainfall Rate (Hourly) solar Conditions
00:04 40.2 °F 37.8 °F 30.21 in West 2 mph 4 mph 91% 0 in 0.00 W/m2
00:09 40.1 °F 37.7 °F 30.21 in West 2 mph 3 mph 91% 0 in 0.00 W/m2
00:14 40.2 °F 38.1 °F 30.22 in WNW 1 mph 4 mph 92% 0 in 0.00 W/m2
00:19 40.2 °F 38.1 °F 30.22 in WNW 3 mph 5 mph 92% 0 in 0.00 W/m2
00:24 40.3 °F 37.9 °F 30.22 in WNW 2 mph 5 mph 91% 0 in 0.00 W/m2
00:29 40.6 °F 38.2 °F 30.21 in WNW 1 mph 7 mph 91% 0 in 0.00 W/m2
00:34 40.6 °F 38.2 °F 30.21 in WNW 1 mph 7 mph 91% 0 in 0.00 W/m2
00:39 40.6 °F 37.9 °F 30.21 in WNW 1 mph 7 mph 90% 0 in 0.00 W/m2
00:44 40.5 °F 37.8 °F 30.21 in WNW 3 mph 5 mph 90% 0 in 0.00 W/m2
00:49 40.4 °F 37.7 °F 30.22 in WNW 3 mph 5 mph 90% 0 in 0.00 W/m2
00:54 40.3 °F 37.6 °F 30.21 in WNW 3 mph 5 mph 90% 0 in 0.00 W/m2
00:59 40.1 °F 37.4 °F 30.22 in WNW 2 mph 4 mph 90% 0 in 0.00 W/m2
01:04 40 °F 37.3 °F 30.22 in WNW 3 mph 4 mph 90% 0 in 0.00 W/m2
01:09 39.9 °F 37.2 °F 30.22 in WNW 2 mph 4 mph 90% 0 in 0.00 W/m2
01:14 39.8 °F 37.1 °F 30.22 in WNW 2 mph 3 mph 90% 0 in 0.00 W/m2
01:19 39.7 °F 37.3 °F 30.21 in WNW 3 mph 3 mph 91% 0 in 0.00 W/m2
01:24 39.6 °F 37.2 °F 30.22 in West 3 mph 5 mph 91% 0 in 0.00 W/m2
01:29 39.4 °F 37 °F 30.22 in West 3 mph 5 mph 91% 0 in 0.00 W/m2
01:34 39.4 °F 37 °F 30.22 in West 3 mph 6 mph 91% 0 in 0.00 W/m2
01:39 39.4 °F 37 °F 30.22 in West 3 mph 6 mph 91% 0 in 0.00 W/m2
01:44 39.3 °F 36.9 °F 30.22 in West 4 mph 5 mph 91% 0 in 0.00 W/m2
01:49 39.4 °F 37 °F 30.22 in West 3 mph 6 mph 91% 0 in 0.00 W/m2
01:54 39.4 °F 37 °F 30.22 in West 5 mph 6 mph 91% 0 in 0.00 W/m2
01:59 39.3 °F 36.9 °F 30.22 in West 5 mph 6 mph 91% 0 in 0.00 W/m2
02:04 39.4 °F 37 °F 30.22 in West 5 mph 6 mph 91% 0 in 0.00 W/m2
02:09 39.3 °F 36.9 °F 30.22 in West 3 mph 5 mph 91% 0 in 0.00 W/m2
02:14 39.3 °F 36.9 °F 30.22 in West 4 mph 6 mph 91% 0 in 0.00 W/m2
02:19 39 °F 36.3 °F 30.22 in West 5 mph 6 mph 90% 0 in 0.00 W/m2
02:24 38.9 °F 36.5 °F 30.22 in WNW 2 mph 6 mph 91% 0 in 0.00 W/m2
02:29 38.8 °F 36.4 °F 30.22 in West 5 mph 6 mph 91% 0 in 0.00 W/m2
02:34 38.7 °F 36.3 °F 30.22 in West 4 mph 6 mph 91% 0 in 0.00 W/m2
02:39 38.7 °F 36.3 °F 30.22 in West 5 mph 6 mph 91% 0 in 0.00 W/m2
02:44 38.5 °F 36.1 °F 30.22 in West 2 mph 6 mph 91% 0 in 0.00 W/m2
02:49 38.5 °F 36.1 °F 30.22 in West 3 mph 5 mph 91% 0 in 0.00 W/m2
02:54 38.1 °F 35.4 °F 30.23 in WSW 5 mph 5 mph 90% 0 in 0.00 W/m2
02:59 37.6 °F 34.9 °F 30.23 in WSW 4 mph 6 mph 90% 0 in 0.00 W/m2
03:04 37.3 °F 34.9 °F 30.22 in West 3 mph 6 mph 91% 0 in 0.00 W/m2
03:09 37.3 °F 35.2 °F 30.22 in West 2 mph 5 mph 92% 0 in 0.00 W/m2
03:14 37.5 °F 35.4 °F 30.22 in West 2 mph 4 mph 92% 0 in 0.00 W/m2
03:19 37.6 °F 35.5 °F 30.22 in West 2 mph 4 mph 92% 0 in 0.00 W/m2
03:24 37.6 °F 35.5 °F 30.22 in West 2 mph 3 mph 92% 0 in 0.00 W/m2
03:29 37.6 °F 35.5 °F 30.22 in West 2 mph 3 mph 92% 0 in 0.00 W/m2
03:34 37.5 °F 35.4 °F 30.22 in West 2 mph 2 mph 92% 0 in 0.00 W/m2
03:39 37.6 °F 35.5 °F 30.21 in West 3 mph 3 mph 92% 0 in 0.00 W/m2
03:44 37.6 °F 35.5 °F 30.22 in West 2 mph 3 mph 92% 0 in 0.00 W/m2
03:49 37.4 °F 35.3 °F 30.21 in West 3 mph 4 mph 92% 0 in 0.00 W/m2
03:54 37.1 °F 35 °F 30.21 in WSW 3 mph 4 mph 92% 0 in 0.00 W/m2
03:59 37 °F 34.9 °F 30.21 in SW 4 mph 4 mph 92% 0 in 0.00 W/m2
04:04 36.8 °F 34.7 °F 30.21 in SW 4 mph 5 mph 92% 0 in 0.00 W/m2
04:09 36.6 °F 34.5 °F 30.21 in SW 4 mph 5 mph 92% 0 in 0.00 W/m2
04:14 36.5 °F 34.4 °F 30.21 in WSW 3 mph 5 mph 92% 0 in 0.00 W/m2
04:19 36.2 °F 34.1 °F 30.21 in WSW 3 mph 5 mph 92% 0 in 0.00 W/m2
04:24 36.1 °F 34 °F 30.20 in WSW 2 mph 5 mph 92% 0 in 0.00 W/m2
04:29 36.1 °F 34 °F 30.20 in WSW 2 mph 4 mph 92% 0 in 0.00 W/m2
04:34 36.1 °F 34 °F 30.20 in WSW 3 mph 3 mph 92% 0 in 0.00 W/m2
04:39 36.2 °F 34.1 °F 30.20 in WSW 2 mph 3 mph 92% 0 in 0.00 W/m2
04:44 36.2 °F 34.1 °F 30.20 in WSW 3 mph 4 mph 92% 0 in 0.00 W/m2
04:49 36.3 °F 34.2 °F 30.20 in WSW 3 mph 4 mph 92% 0 in 0.00 W/m2
04:54 36.3 °F 34.5 °F 30.20 in SW 4 mph 4 mph 93% 0 in 0.00 W/m2
04:59 36.3 °F 34.5 °F 30.20 in SW 3 mph 5 mph 93% 0 in 0.00 W/m2
05:04 36.4 °F 34.6 °F 30.20 in SW 2 mph 5 mph 93% 0 in 0.00 W/m2
05:09 36.5 °F 34.7 °F 30.20 in SW 2 mph 4 mph 93% 0 in 0.00 W/m2
05:14 36.6 °F 34.8 °F 30.20 in SW 3 mph 4 mph 93% 0 in 0.00 W/m2
05:19 36.7 °F 34.9 °F 30.20 in SW 3 mph 4 mph 93% 0 in 0.00 W/m2
05:24 36.8 °F 35 °F 30.20 in SW 3 mph 4 mph 93% 0 in 0.00 W/m2
05:29 36.8 °F 35 °F 30.20 in SW 4 mph 5 mph 93% 0 in 0.00 W/m2
05:34 36.9 °F 35.1 °F 30.20 in SW 3 mph 5 mph 93% 0 in 0.00 W/m2
05:39 37.1 °F 35.3 °F 30.20 in SW 4 mph 5 mph 93% 0 in 0.00 W/m2
05:44 37 °F 34.9 °F 30.20 in SW 3 mph 5 mph 92% 0 in 0.00 W/m2
05:49 37 °F 35.2 °F 30.20 in SW 2 mph 5 mph 93% 0 in 0.00 W/m2
05:54 37 °F 34.9 °F 30.20 in SW 2 mph 4 mph 92% 0 in 0.00 W/m2
05:59 36.9 °F 34.8 °F 30.20 in SW 2 mph 3 mph 92% 0 in 0.00 W/m2
06:04 36.9 °F 34.8 °F 30.20 in SW 4 mph 5 mph 92% 0 in 0.00 W/m2
06:09 36.9 °F 35.1 °F 30.20 in SSW 3 mph 5 mph 93% 0 in 0.00 W/m2
06:14 36.9 °F 34.8 °F 30.20 in SSW 4 mph 5 mph 92% 0 in 0.00 W/m2
06:19 36.7 °F 34.6 °F 30.21 in SSW 5 mph 5 mph 92% 0 in 0.00 W/m2
06:24 36.8 °F 34.7 °F 30.21 in SW 4 mph 6 mph 92% 0 in 0.00 W/m2
06:29 36.8 °F 34.7 °F 30.21 in SW 4 mph 7 mph 92% 0 in 0.00 W/m2
06:34 37 °F 35.2 °F 30.20 in SSW 6 mph 7 mph 93% 0 in 0.00 W/m2
06:39 37.2 °F 35.4 °F 30.20 in SSW 7 mph 7 mph 93% 0 in 0.00 W/m2
06:44 37.3 °F 35.5 °F 30.20 in SSW 6 mph 7 mph 93% 0 in 0.00 W/m2
06:49 37.4 °F 35.3 °F 30.20 in SSW 4 mph 7 mph 92% 0 in 0.00 W/m2
06:54 37.4 °F 35.3 °F 30.19 in SSW 3 mph 7 mph 92% 0 in 0.00 W/m2
06:59 37.4 °F 35.3 °F 30.19 in SSW 4 mph 7 mph 92% 0 in 0.00 W/m2
07:04 37.2 °F 35.1 °F 30.19 in SW 5 mph 6 mph 92% 0 in 0.00 W/m2
07:09 37.2 °F 35.1 °F 30.19 in SSW 5 mph 6 mph 92% 0 in 0.00 W/m2
07:14 37.1 °F 35 °F 30.19 in SSW 4 mph 8 mph 92% 0 in 0.00 W/m2
07:19 37.2 °F 35.1 °F 30.19 in SW 4 mph 8 mph 92% 0 in 0.00 W/m2
07:24 37.3 °F 35.2 °F 30.19 in SSW 4 mph 7 mph 92% 0 in 0.00 W/m2
07:29 37.3 °F 35.2 °F 30.19 in SSW 4 mph 7 mph 92% 0 in 5.00 W/m2
07:34 37.2 °F 34.8 °F 30.19 in SSW 4 mph 7 mph 91% 0 in 9.00 W/m2
07:39 37.2 °F 34.8 °F 30.19 in SSW 4 mph 7 mph 91% 0 in 11.00 W/m2
07:44 37 °F 34.6 °F 30.18 in SSW 5 mph 6 mph 91% 0 in 12.00 W/m2
07:49 36.9 °F 34.5 °F 30.19 in South 3 mph 6 mph 91% 0 in 16.00 W/m2
07:54 36.7 °F 34.3 °F 30.18 in South 4 mph 6 mph 91% 0 in 21.00 W/m2
07:59 36.7 °F 34.3 °F 30.18 in South 5 mph 6 mph 91% 0 in 28.00 W/m2
08:04 36.8 °F 34.4 °F 30.18 in SSE 4 mph 7 mph 91% 0 in 35.00 W/m2
08:09 36.9 °F 34.8 °F 30.17 in SSE 4 mph 7 mph 92% 0 in 44.00 W/m2
08:14 37 °F 34.9 °F 30.17 in SSE 4 mph 6 mph 92% 0 in 56.00 W/m2
08:19 37.3 °F 35.2 °F 30.17 in SSE 4 mph 6 mph 92% 0 in 70.00 W/m2
08:24 37.7 °F 35.6 °F 30.17 in South 5 mph 6 mph 92% 0 in 69.00 W/m2
08:29 38.2 °F 36.1 °F 30.17 in South 5 mph 7 mph 92% 0 in 86.00 W/m2
08:34 38.6 °F 36.2 °F 30.17 in South 5 mph 7 mph 91% 0 in 79.00 W/m2
08:39 39 °F 36.6 °F 30.16 in South 5 mph 8 mph 91% 0 in 74.00 W/m2
08:44 39.3 °F 36.6 °F 30.16 in South 4 mph 8 mph 90% 0 in 91.00 W/m2
08:49 39.6 °F 36.9 °F 30.16 in South 4 mph 7 mph 90% 0 in 105.00 W/m2
08:54 40 °F 37.3 °F 30.16 in SSE 5 mph 7 mph 90% 0 in 134.00 W/m2
08:59 40.5 °F 37.5 °F 30.15 in SSW 4 mph 9 mph 89% 0 in 178.00 W/m2
09:04 41.1 °F 37.8 °F 30.15 in SSW 6 mph 9 mph 88% 0 in 206.00 W/m2
09:09 41.7 °F 38.4 °F 30.15 in WSW 5 mph 8 mph 88% 0 in 262.00 W/m2
09:14 42.3 °F 38.4 °F 30.15 in SW 4 mph 8 mph 86% 0 in 218.00 W/m2
09:19 42.6 °F 38.4 °F 30.15 in SSW 4 mph 9 mph 85% 0 in 243.00 W/m2
09:24 42.9 °F 38.4 °F 30.15 in SW 11 mph 12 mph 84% 0 in 218.00 W/m2
09:29 43 °F 38.2 °F 30.15 in SW 6 mph 13 mph 83% 0 in 197.00 W/m2
09:34 43.2 °F 38.4 °F 30.14 in SSW 5 mph 13 mph 83% 0 in 223.00 W/m2
09:39 43.4 °F 38.6 °F 30.14 in SW 6 mph 11 mph 83% 0 in 246.00 W/m2
09:44 43.6 °F 38.8 °F 30.14 in SSE 7 mph 9 mph 83% 0 in 227.00 W/m2
09:49 43.9 °F 38.8 °F 30.14 in SW 5 mph 11 mph 82% 0 in 207.00 W/m2
Bismarck, North Dakota, USA
Compliments of Weather Underground - 4 mb